Time;durP1;ratioP1;P1;durP2;ratioP2;P2;SDS_P1;SDS_P2;PMS_P1;PMS_P2;Temp;Humidity;BMP_temperature;BMP_pressure;BME280_temperature;BME280_humidity;BME280_pressure;Samples;Min_cycle;Max_cycle;Signal;HPM_P1;HPM_P2
2022/03/07 00:01:55;;;;;;;2.55;1.25;;;20.00;50.60;;;;;;4546375;31;20120;-65
2022/03/07 00:04:21;;;;;;;3.00;1.27;;;19.90;50.60;;;;;;4546176;31;20147;-66
2022/03/07 00:06:48;;;;;;;2.70;1.23;;;19.90;50.60;;;;;;4545947;31;20254;-65
2022/03/07 00:09:15;;;;;;;2.95;1.40;;;19.90;50.60;;;;;;4546503;31;20269;-65
2022/03/07 00:11:42;;;;;;;2.17;1.27;;;19.90;50.70;;;;;;4545469;31;20190;-66
2022/03/07 00:14:09;;;;;;;2.55;1.50;;;19.90;50.70;;;;;;4546401;31;20513;-65
2022/03/07 00:16:35;;;;;;;3.42;1.30;;;19.80;50.70;;;;;;4545237;31;20212;-65
2022/03/07 00:19:01;;;;;;;2.28;1.20;;;19.80;50.70;;;;;;4546101;31;20131;-66
2022/03/07 00:21:27;;;;;;;3.33;1.27;;;19.80;50.70;;;;;;4545779;31;20131;-65
2022/03/07 00:23:53;;;;;;;2.72;1.38;;;19.80;50.70;;;;;;4545686;31;20134;-65
2022/03/07 00:26:19;;;;;;;2.67;1.10;;;19.80;50.70;;;;;;4546230;31;20135;-65
2022/03/07 00:28:47;;;;;;;3.17;1.42;;;19.70;50.60;;;;;;4545140;31;20216;-65
2022/03/07 00:31:13;;;;;;;2.92;1.30;;;19.70;50.70;;;;;;4546119;31;20188;-65
2022/03/07 00:33:39;;;;;;;2.45;1.33;;;19.70;50.70;;;;;;4545195;31;20149;-65
2022/03/07 00:36:05;;;;;;;2.15;1.20;;;19.70;50.60;;;;;;4545905;31;20120;-65
2022/03/07 00:38:32;;;;;;;2.33;1.15;;;19.70;50.70;;;;;;4545370;31;20136;-66
2022/03/07 00:40:58;;;;;;;3.08;1.45;;;19.60;50.60;;;;;;4545535;31;20150;-66
2022/03/07 00:43:25;;;;;;;4.20;1.55;;;19.60;50.60;;;;;;4545616;31;20119;-65
2022/03/07 00:45:51;;;;;;;2.50;1.10;;;19.60;50.70;;;;;;4544860;31;20158;-65
2022/03/07 00:48:17;;;;;;;2.10;1.10;;;19.60;50.60;;;;;;4546071;31;20139;-65
2022/03/07 00:50:48;;;;;;;1.88;1.17;;;19.60;50.60;;;;;;4544732;31;20186;-65
2022/03/07 00:53:17;;;;;;;2.38;1.27;;;19.60;50.70;;;;;;4545762;31;20188;-65
2022/03/07 00:55:43;;;;;;;3.10;1.23;;;19.60;50.70;;;;;;4545243;31;20286;-65
2022/03/07 00:58:09;;;;;;;3.58;1.30;;;19.50;50.60;;;;;;4545445;31;20134;-65
2022/03/07 01:00:36;;;;;;;2.17;1.15;;;19.50;50.60;;;;;;4545613;31;20154;-65
2022/03/07 01:03:04;;;;;;;2.45;1.23;;;19.50;50.60;;;;;;4544707;31;20146;-65
2022/03/07 01:05:30;;;;;;;2.05;1.02;;;19.50;50.60;;;;;;4545973;31;20155;-65
2022/03/07 01:07:57;;;;;;;2.92;1.52;;;19.50;50.60;;;;;;4544782;31;20139;-65
2022/03/07 01:10:23;;;;;;;3.17;1.02;;;19.50;50.60;;;;;;4545479;31;20116;-65
2022/03/07 01:12:49;;;;;;;2.95;1.15;;;19.40;50.60;;;;;;4545108;31;20527;-65
2022/03/07 01:15:16;;;;;;;1.77;1.08;;;19.40;50.60;;;;;;4544817;31;20189;-65
2022/03/07 01:17:42;;;;;;;1.50;1.00;;;19.50;50.70;;;;;;4545712;31;20147;-65
2022/03/07 01:20:09;;;;;;;2.65;1.35;;;19.40;50.60;;;;;;4544633;31;20192;-65
2022/03/07 01:22:36;;;;;;;1.60;0.82;;;19.40;50.60;;;;;;4545830;31;20144;-65
2022/03/07 01:25:04;;;;;;;3.35;1.00;;;19.40;50.70;;;;;;4544768;31;20128;-66
2022/03/07 01:27:30;;;;;;;1.67;0.88;;;19.40;50.70;;;;;;4545389;31;20148;-65
2022/03/07 01:29:56;;;;;;;1.90;1.00;;;19.40;50.70;;;;;;4545074;31;20571;-65
2022/03/07 01:32:22;;;;;;;2.10;1.00;;;19.40;50.70;;;;;;4545087;31;20131;-65
2022/03/07 01:34:48;;;;;;;2.03;1.00;;;19.30;50.60;;;;;;4545561;31;20127;-65
2022/03/07 01:37:14;;;;;;;2.63;1.17;;;19.30;50.60;;;;;;4544477;31;20119;-65
2022/03/07 01:39:40;;;;;;;2.45;1.13;;;19.30;50.60;;;;;;4531167;31;20119;-65
2022/03/07 01:42:06;;;;;;;2.75;1.20;;;19.30;50.60;;;;;;4544460;31;20133;-64
2022/03/07 01:44:32;;;;;;;2.22;0.93;;;19.30;50.60;;;;;;4545283;31;20130;-65
2022/03/07 01:46:58;;;;;;;3.70;1.13;;;19.30;50.60;;;;;;4530066;31;20139;-65
2022/03/07 01:49:25;;;;;;;2.30;0.75;;;19.20;50.60;;;;;;4544987;31;20119;-65
2022/03/07 01:51:51;;;;;;;1.80;0.90;;;19.20;50.60;;;;;;4545348;31;20147;-65
2022/03/07 01:54:19;;;;;;;1.77;0.90;;;19.20;50.60;;;;;;4544760;31;20328;-65
2022/03/07 01:56:47;;;;;;;2.40;1.08;;;19.20;50.60;;;;;;4548732;31;20262;-65
2022/03/07 01:59:24;;;;;;;1.60;0.90;;;19.20;50.70;;;;;;4547394;31;20144;-66
2022/03/07 02:01:51;;;;;;;2.97;1.20;;;19.20;50.70;;;;;;4548313;31;20139;-66
2022/03/07 02:04:17;;;;;;;1.35;0.90;;;19.20;50.70;;;;;;4547709;31;20256;-65
2022/03/07 02:06:45;;;;;;;2.35;0.90;;;19.20;50.70;;;;;;4547996;31;20375;-65
2022/03/07 02:09:12;;;;;;;1.90;1.10;;;19.10;50.60;;;;;;4548366;31;20134;-65
2022/03/07 02:11:38;;;;;;;1.23;0.82;;;19.10;50.60;;;;;;4547174;31;20880;-66
2022/03/07 02:14:17;;;;;;;2.08;0.70;;;19.10;50.60;;;;;;4548344;31;20192;-65
2022/03/07 02:16:44;;;;;;;1.67;0.90;;;19.10;50.60;;;;;;4547363;31;20639;-65
2022/03/07 02:19:10;;;;;;;1.33;0.77;;;19.10;50.60;;;;;;4548003;31;20189;-65
2022/03/07 02:21:41;;;;;;;2.35;0.98;;;19.10;50.60;;;;;;4547770;31;20185;-65
2022/03/07 02:24:07;;;;;;;1.77;0.88;;;19.10;50.60;;;;;;4547574;31;20640;-66
2022/03/07 02:26:33;;;;;;;1.40;0.70;;;19.00;50.50;;;;;;4548198;31;20150;-65
2022/03/07 02:29:00;;;;;;;2.92;1.05;;;19.00;50.50;;;;;;4546957;31;20138;-65
2022/03/07 02:31:29;;;;;;;1.77;0.98;;;19.00;50.50;;;;;;4548009;31;20214;-65
2022/03/07 02:33:55;;;;;;;2.25;0.70;;;19.00;50.50;;;;;;4547179;31;20130;-65
2022/03/07 02:36:22;;;;;;;1.08;0.70;;;19.00;50.50;;;;;;4547632;31;20142;-65
2022/03/07 02:38:48;;;;;;;1.67;0.95;;;19.00;50.50;;;;;;4547572;31;20204;-66
2022/03/07 02:41:14;;;;;;;1.63;0.88;;;19.00;50.50;;;;;;4547159;31;20265;-66
2022/03/07 02:43:40;;;;;;;1.63;0.80;;;18.90;50.50;;;;;;4533347;31;20262;-66
2022/03/07 02:46:06;;;;;;;1.48;0.75;;;19.00;50.50;;;;;;4546758;31;20451;-65
2022/03/07 02:48:32;;;;;;;2.83;0.85;;;18.90;50.50;;;;;;4547775;31;20150;-66
2022/03/07 02:50:58;;;;;;;1.25;0.68;;;18.90;50.50;;;;;;4546088;31;20123;-65
2022/03/07 02:53:25;;;;;;;1.60;0.80;;;18.90;50.50;;;;;;4545339;31;20147;-65
2022/03/07 02:55:51;;;;;;;1.67;1.00;;;18.90;50.50;;;;;;4545965;31;20198;-67
2022/03/07 02:58:17;;;;;;;1.55;0.52;;;18.90;50.50;;;;;;4545151;31;20136;-66
2022/03/07 03:00:43;;;;;;;2.30;0.70;;;18.80;50.40;;;;;;4532533;31;20120;-66
2022/03/07 03:03:09;;;;;;;1.38;0.73;;;18.80;50.40;;;;;;4545680;31;20257;-65
2022/03/07 03:05:35;;;;;;;1.45;0.63;;;18.80;50.40;;;;;;4546882;31;20578;-66
2022/03/07 03:08:01;;;;;;;1.38;0.65;;;18.80;50.40;;;;;;4545982;31;20115;-65
2022/03/07 03:10:27;;;;;;;1.60;0.70;;;18.80;50.40;;;;;;4547252;31;20139;-66
2022/03/07 03:12:53;;;;;;;1.08;0.63;;;18.80;50.40;;;;;;4546126;31;20134;-65
2022/03/07 03:15:19;;;;;;;1.33;0.60;;;18.80;50.40;;;;;;4545654;31;20130;-65
2022/03/07 03:17:45;;;;;;;1.38;0.70;;;18.80;50.50;;;;;;4546711;31;20151;-65
2022/03/07 03:20:14;;;;;;;1.25;0.70;;;18.80;50.50;;;;;;4545475;31;20159;-65
2022/03/07 03:22:41;;;;;;;1.42;0.68;;;18.80;50.50;;;;;;4544901;31;20107;-65
2022/03/07 03:25:09;;;;;;;1.38;0.68;;;18.70;50.40;;;;;;4545540;31;20206;-65
2022/03/07 03:27:35;;;;;;;2.08;0.88;;;18.70;50.40;;;;;;4544930;31;20147;-65
2022/03/07 03:30:02;;;;;;;1.25;0.60;;;18.70;50.40;;;;;;4544864;31;20120;-68
2022/03/07 03:32:29;;;;;;;0.98;0.52;;;18.70;50.40;;;;;;4545055;31;20201;-68
2022/03/07 03:34:56;;;;;;;1.55;0.63;;;18.70;50.40;;;;;;4542968;31;20194;-66
2022/03/07 03:37:24;;;;;;;1.23;0.70;;;18.70;50.40;;;;;;4529833;31;20135;-66
2022/03/07 03:39:50;;;;;;;1.23;0.70;;;18.60;50.40;;;;;;4531033;31;20143;-66
2022/03/07 03:42:16;;;;;;;1.02;0.63;;;18.60;50.40;;;;;;4542998;31;20139;-67
2022/03/07 03:44:42;;;;;;;1.27;0.60;;;18.60;50.40;;;;;;4545153;31;20465;-66
2022/03/07 03:47:08;;;;;;;0.90;0.60;;;18.70;50.40;;;;;;4544836;31;20135;-66
2022/03/07 03:49:34;;;;;;;1.38;0.70;;;18.60;50.40;;;;;;4544870;31;20116;-66
2022/03/07 03:51:59;;;;;;;1.23;0.55;;;18.60;50.40;;;;;;4546468;31;20130;-66
2022/03/07 03:54:25;;;;;;;0.88;0.80;;;18.60;50.40;;;;;;4545560;31;20131;-66
2022/03/07 03:56:51;;;;;;;1.35;0.55;;;18.60;50.50;;;;;;4546797;31;20133;-66
2022/03/07 03:59:17;;;;;;;1.60;0.50;;;18.60;50.50;;;;;;4545674;31;20151;-67
2022/03/07 04:01:44;;;;;;;2.42;0.70;;;18.60;51.40;;;;;;4546621;31;20228;-66
2022/03/07 04:04:14;;;;;;;0.88;0.57;;;18.50;50.40;;;;;;4545996;31;20149;-66
2022/03/07 04:06:41;;;;;;;0.80;0.52;;;18.50;50.50;;;;;;4546132;31;20580;-66
2022/03/07 04:09:16;;;;;;;2.50;1.10;;;18.50;50.50;;;;;;4546482;31;20162;-66
2022/03/07 04:11:43;;;;;;;1.63;0.77;;;18.50;50.50;;;;;;4545432;31;20127;-66
2022/03/07 04:14:09;;;;;;;1.67;0.82;;;18.50;50.50;;;;;;4546576;31;20108;-66
2022/03/07 04:16:38;;;;;;;1.10;0.50;;;18.50;50.50;;;;;;4545421;31;20244;-66
2022/03/07 04:19:06;;;;;;;0.93;0.50;;;18.50;50.50;;;;;;4531428;31;20308;-66
2022/03/07 04:21:33;;;;;;;1.35;0.60;;;18.50;50.50;;;;;;4545942;31;20135;-66
2022/03/07 04:23:59;;;;;;;1.20;0.65;;;18.40;50.50;;;;;;4545633;31;20139;-66
2022/03/07 04:26:25;;;;;;;1.52;0.50;;;18.40;50.50;;;;;;4546355;31;20119;-66
2022/03/07 04:28:51;;;;;;;1.92;0.88;;;18.40;50.50;;;;;;4544973;31;20140;-66
2022/03/07 04:31:16;;;;;;;0.82;0.60;;;18.40;50.50;;;;;;4546169;31;20718;-66
2022/03/07 04:33:42;;;;;;;0.82;0.47;;;18.40;50.50;;;;;;4545235;31;20266;-66
2022/03/07 04:36:09;;;;;;;1.00;0.50;;;18.40;50.50;;;;;;4546125;31;20135;-66
2022/03/07 04:38:35;;;;;;;1.00;0.60;;;18.40;51.40;;;;;;4531346;31;20297;-66
2022/03/07 04:41:02;;;;;;;1.02;0.50;;;18.40;50.50;;;;;;4545368;31;20142;-66
2022/03/07 04:43:28;;;;;;;1.05;0.63;;;18.40;50.50;;;;;;4545764;31;20191;-66
2022/03/07 04:45:54;;;;;;;1.40;0.55;;;18.30;50.50;;;;;;4544555;31;20128;-66
2022/03/07 04:48:20;;;;;;;1.02;0.55;;;18.30;50.50;;;;;;4545908;31;20130;-66
2022/03/07 04:50:47;;;;;;;1.10;0.52;;;18.30;50.50;;;;;;4544909;31;20284;-66
2022/03/07 04:53:13;;;;;;;1.05;0.57;;;18.30;50.50;;;;;;4545529;31;20742;-66
2022/03/07 04:55:39;;;;;;;0.65;0.50;;;18.30;50.50;;;;;;4545445;31;20124;-66
2022/03/07 04:58:05;;;;;;;1.20;0.52;;;18.30;50.50;;;;;;4545156;31;20155;-66
2022/03/07 05:00:32;;;;;;;1.33;0.43;;;18.30;50.50;;;;;;4545678;31;20139;-66
2022/03/07 05:02:57;;;;;;;0.60;0.55;;;18.30;50.40;;;;;;4544877;31;20128;-66
2022/03/07 05:05:23;;;;;;;1.13;0.30;;;18.30;50.50;;;;;;4545940;31;20138;-66
2022/03/07 05:07:52;;;;;;;0.65;0.32;;;18.20;50.40;;;;;;4544867;31;20142;-66
2022/03/07 05:10:18;;;;;;;2.25;0.70;;;18.20;50.50;;;;;;4545435;31;20151;-66
2022/03/07 05:12:45;;;;;;;0.90;0.50;;;18.20;50.50;;;;;;4545189;31;20140;-66
2022/03/07 05:15:11;;;;;;;1.00;0.60;;;18.20;50.50;;;;;;4545200;31;20192;-66
2022/03/07 05:17:42;;;;;;;0.82;0.40;;;18.20;50.40;;;;;;4545352;31;20456;-66
2022/03/07 05:20:11;;;;;;;1.02;0.52;;;18.20;50.50;;;;;;4544505;31;20249;-66
2022/03/07 05:22:38;;;;;;;0.68;0.50;;;18.20;50.50;;;;;;4531137;31;20285;-66
2022/03/07 05:25:04;;;;;;;0.60;0.40;;;18.20;50.50;;;;;;4544916;31;20119;-66
2022/03/07 05:27:31;;;;;;;1.20;0.45;;;18.20;50.50;;;;;;4545494;31;20179;-66
2022/03/07 05:29:57;;;;;;;1.15;0.50;;;18.20;50.50;;;;;;4546363;31;20162;-66
2022/03/07 05:32:23;;;;;;;0.77;0.40;;;18.20;50.50;;;;;;4548325;31;20580;-66
2022/03/07 05:34:48;;;;;;;0.90;0.60;;;18.20;50.50;;;;;;4548914;31;20138;-66
2022/03/07 05:37:14;;;;;;;1.42;0.50;;;18.10;50.40;;;;;;4547685;31;20132;-66
2022/03/07 05:39:40;;;;;;;1.15;0.40;;;18.10;50.40;;;;;;4548904;31;20126;-66
2022/03/07 05:42:06;;;;;;;1.30;0.50;;;18.10;50.40;;;;;;4547889;31;20124;-66
2022/03/07 05:44:33;;;;;;;0.68;0.40;;;18.10;50.40;;;;;;4548273;31;20168;-66
2022/03/07 05:46:58;;;;;;;0.80;0.40;;;18.10;50.40;;;;;;4547962;31;20523;-66
2022/03/07 05:49:24;;;;;;;1.10;0.68;;;18.10;50.40;;;;;;4547991;31;20127;-66
2022/03/07 05:51:50;;;;;;;0.50;0.32;;;18.10;50.50;;;;;;4548593;31;20127;-66
2022/03/07 05:54:16;;;;;;;1.00;0.47;;;18.10;50.50;;;;;;4547772;31;20304;-66
2022/03/07 05:56:41;;;;;;;0.88;0.40;;;18.00;50.40;;;;;;4548767;31;20194;-66
2022/03/07 05:59:08;;;;;;;0.32;0.30;;;18.00;50.50;;;;;;4547447;31;20254;-66
2022/03/07 06:01:34;;;;;;;1.45;0.50;;;18.00;50.50;;;;;;4548264;31;20220;-66
2022/03/07 06:04:00;;;;;;;2.05;0.50;;;18.00;51.40;;;;;;4547663;31;20146;-66
2022/03/07 06:06:26;;;;;;;0.70;0.50;;;18.00;50.50;;;;;;4533694;31;20131;-66
2022/03/07 06:08:52;;;;;;;1.42;0.32;;;18.00;50.50;;;;;;4548294;31;20181;-66
2022/03/07 06:11:18;;;;;;;0.82;0.60;;;18.00;50.40;;;;;;4547265;31;20139;-66
2022/03/07 06:13:46;;;;;;;0.95;0.35;;;17.90;50.40;;;;;;4534056;31;20151;-66
2022/03/07 06:16:12;;;;;;;0.80;0.50;;;18.00;50.50;;;;;;4547073;31;20143;-66
2022/03/07 06:18:38;;;;;;;0.75;0.30;;;17.90;50.40;;;;;;4548117;31;20131;-66
2022/03/07 06:21:05;;;;;;;1.20;0.30;;;17.90;50.40;;;;;;4547315;31;20259;-66
2022/03/07 06:23:31;;;;;;;1.25;0.40;;;17.90;50.40;;;;;;4547793;31;20136;-66
2022/03/07 06:25:57;;;;;;;1.10;0.30;;;17.90;50.40;;;;;;4547897;31;20124;-66
2022/03/07 06:28:23;;;;;;;0.50;0.30;;;17.90;50.40;;;;;;4547278;31;20136;-66
2022/03/07 06:30:49;;;;;;;0.80;0.40;;;17.90;50.40;;;;;;4548090;31;20167;-66
2022/03/07 06:33:16;;;;;;;0.65;0.50;;;17.90;50.50;;;;;;4546930;31;20139;-66
2022/03/07 06:35:42;;;;;;;0.80;0.45;;;17.90;50.50;;;;;;4533459;31;20155;-66
2022/03/07 06:38:08;;;;;;;0.30;0.30;;;17.90;50.50;;;;;;4547138;31;20131;-66
2022/03/07 06:40:34;;;;;;;0.65;0.40;;;17.90;50.50;;;;;;4547107;31;20534;-66
2022/03/07 06:43:03;;;;;;;1.20;0.40;;;17.80;50.50;;;;;;4547680;31;20124;-66
2022/03/07 06:45:30;;;;;;;0.93;0.40;;;17.80;50.50;;;;;;4546513;31;20184;-66
2022/03/07 06:47:56;;;;;;;0.80;0.50;;;17.80;50.50;;;;;;4548233;31;20194;-66
2022/03/07 06:50:22;;;;;;;1.15;0.40;;;17.80;50.50;;;;;;4546216;31;20164;-66
2022/03/07 06:52:48;;;;;;;1.05;0.50;;;17.80;50.40;;;;;;4547655;31;20142;-66
2022/03/07 06:55:15;;;;;;;0.65;0.40;;;17.70;50.40;;;;;;4532539;31;20123;-66
2022/03/07 06:57:42;;;;;;;0.93;0.40;;;17.80;50.40;;;;;;4547192;31;20171;-66
2022/03/07 07:00:11;;;;;;;0.60;0.40;;;17.80;50.40;;;;;;4546580;31;20189;-66
2022/03/07 07:02:37;;;;;;;1.38;0.28;;;17.70;50.40;;;;;;4545066;31;20269;-66
2022/03/07 07:05:04;;;;;;;0.50;0.40;;;17.70;50.40;;;;;;4546782;31;20143;-66
2022/03/07 07:07:31;;;;;;;0.60;0.40;;;17.70;50.40;;;;;;4545343;31;20174;-66
2022/03/07 07:09:57;;;;;;;0.60;0.40;;;17.70;50.40;;;;;;4546669;31;20136;-66
2022/03/07 07:12:23;;;;;;;0.40;0.30;;;17.70;50.40;;;;;;4545819;31;20150;-66
2022/03/07 07:14:50;;;;;;;0.90;0.25;;;17.70;50.50;;;;;;4546162;31;20155;-66
2022/03/07 07:17:16;;;;;;;0.57;0.30;;;17.70;50.50;;;;;;4545873;31;20155;-66
2022/03/07 07:19:42;;;;;;;0.60;0.40;;;17.70;50.50;;;;;;4544113;31;20188;-66
2022/03/07 07:22:09;;;;;;;0.75;0.30;;;17.70;50.50;;;;;;4545532;31;20175;-66
2022/03/07 07:24:35;;;;;;;0.57;0.30;;;17.70;50.50;;;;;;4544501;31;20163;-66
2022/03/07 07:27:01;;;;;;;1.40;0.55;;;17.70;50.50;;;;;;4545714;31;20192;-66
2022/03/07 07:29:27;;;;;;;0.77;0.43;;;17.70;50.50;;;;;;4545193;31;20138;-67
2022/03/07 07:31:53;;;;;;;2.15;0.50;;;17.60;50.50;;;;;;4531708;31;20133;-66
2022/03/07 07:34:20;;;;;;;2.47;1.13;;;17.60;50.50;;;;;;4545936;31;20720;-66
2022/03/07 07:36:47;;;;;;;6.22;1.63;;;17.60;49.30;;;;;;4543712;31;20531;-66
2022/03/07 07:39:13;;;;;;;4.75;1.63;;;17.50;47.30;;;;;;4546261;31;20142;-66
2022/03/07 07:41:39;;;;;;;4.72;1.50;;;17.50;46.10;;;;;;4530503;31;20124;-66
2022/03/07 07:44:05;;;;;;;4.63;1.40;;;17.50;45.80;;;;;;4545975;31;20124;-65
2022/03/07 07:46:31;;;;;;;5.03;1.15;;;17.40;46.80;;;;;;4545085;31;20270;-65
2022/03/07 07:48:57;;;;;;;2.50;1.17;;;17.40;47.20;;;;;;4545961;31;20120;-64
2022/03/07 07:51:23;;;;;;;1.75;0.88;;;17.40;47.20;;;;;;4545321;31;20154;-65
2022/03/07 07:53:49;;;;;;;2.22;1.10;;;17.50;47.20;;;;;;4544832;31;20115;-63
2022/03/07 07:56:15;;;;;;;2.30;1.02;;;17.50;47.30;;;;;;4546046;31;20208;-65
2022/03/07 07:58:41;;;;;;;4.90;1.40;;;17.50;47.20;;;;;;4545225;31;20200;-65
2022/03/07 08:01:07;;;;;;;2.97;1.08;;;17.60;47.30;;;;;;4546592;31;20175;-63
2022/03/07 08:03:33;;;;;;;2.22;1.15;;;17.70;47.30;;;;;;4531262;31;20256;-63
2022/03/07 08:05:59;;;;;;;7.65;1.20;;;17.80;47.30;;;;;;4546545;31;20776;-63
2022/03/07 08:08:27;;;;;;;2.22;1.05;;;17.90;47.20;;;;;;4545994;31;20127;-63
2022/03/07 08:10:54;;;;;;;2.35;1.17;;;18.10;47.00;;;;;;4545940;31;20139;-63
2022/03/07 08:13:20;;;;;;;5.70;0.90;;;18.20;46.80;;;;;;4546530;31;20132;-64
2022/03/07 08:15:46;;;;;;;2.30;1.10;;;18.30;46.60;;;;;;4529774;31;20152;-64
2022/03/07 08:18:12;;;;;;;2.72;1.00;;;18.50;47.50;;;;;;4546039;31;20134;-64
2022/03/07 08:20:38;;;;;;;1.90;1.10;;;18.60;46.50;;;;;;4545076;31;20138;-64
2022/03/07 08:23:05;;;;;;;3.58;1.23;;;18.70;46.30;;;;;;4545809;31;20242;-64
2022/03/07 08:25:32;;;;;;;2.80;0.93;;;18.80;46.20;;;;;;4545409;31;20138;-63
2022/03/07 08:27:59;;;;;;;6.50;1.17;;;18.90;46.10;;;;;;4545395;31;20132;-64
2022/03/07 08:30:29;;;;;;;1.67;0.75;;;19.10;46.00;;;;;;4546101;31;20200;-64
2022/03/07 08:32:56;;;;;;;3.97;0.93;;;19.20;45.80;;;;;;4544637;31;20281;-64
2022/03/07 08:35:22;;;;;;;1.55;0.80;;;19.30;45.60;;;;;;4545937;31;20157;-64
2022/03/07 08:37:50;;;;;;;3.78;0.80;;;19.40;45.50;;;;;;4544911;31;20216;-64
2022/03/07 08:40:17;;;;;;;4.43;1.10;;;19.60;45.40;;;;;;4530885;31;20153;-64
2022/03/07 08:42:44;;;;;;;1.33;0.90;;;19.70;45.20;;;;;;4545161;31;20127;-64
2022/03/07 08:45:11;;;;;;;1.45;0.85;;;19.80;45.00;;;;;;4544808;31;20130;-63
2022/03/07 08:47:38;;;;;;;1.13;0.70;;;19.90;44.80;;;;;;4545198;31;20138;-63
2022/03/07 08:50:06;;;;;;;3.25;0.73;;;20.10;44.70;;;;;;4544138;31;20147;-63
2022/03/07 08:52:32;;;;;;;1.67;0.85;;;20.20;44.50;;;;;;4545409;31;20135;-63
2022/03/07 08:54:58;;;;;;;2.97;0.82;;;20.30;44.30;;;;;;4544432;31;20130;-63
2022/03/07 08:57:23;;;;;;;1.75;0.82;;;20.50;44.10;;;;;;4530559;31;20206;-63
2022/03/07 08:59:49;;;;;;;2.10;0.95;;;20.60;44.80;;;;;;4544692;31;20440;-63
2022/03/07 09:02:15;;;;;;;2.67;1.00;;;20.80;44.70;;;;;;4544605;31;20674;-63
2022/03/07 09:04:41;;;;;;;1.33;0.70;;;20.80;43.50;;;;;;4545146;31;20615;-63
2022/03/07 09:07:07;;;;;;;1.17;0.50;;;21.00;43.40;;;;;;4543904;31;20293;-63
2022/03/07 09:09:34;;;;;;;1.40;0.80;;;21.10;43.20;;;;;;4545231;31;20127;-63
2022/03/07 09:12:04;;;;;;;2.35;0.88;;;21.20;43.10;;;;;;4544225;31;20562;-63
2022/03/07 09:14:30;;;;;;;1.52;0.80;;;21.30;42.90;;;;;;4544870;31;20258;-63
2022/03/07 09:16:57;;;;;;;1.13;0.65;;;21.40;42.80;;;;;;4544392;31;20128;-63
2022/03/07 09:19:23;;;;;;;4.28;0.90;;;21.50;42.60;;;;;;4544691;31;20131;-63
2022/03/07 09:21:49;;;;;;;1.10;0.65;;;21.60;42.40;;;;;;4544755;31;20126;-63
2022/03/07 09:24:15;;;;;;;2.03;0.90;;;21.60;42.20;;;;;;4544337;31;20128;-63
2022/03/07 09:26:41;;;;;;;2.55;0.80;;;21.70;42.10;;;;;;4545805;31;20135;-63
2022/03/07 09:29:07;;;;;;;1.92;0.60;;;21.80;42.00;;;;;;4544606;31;20128;-63
2022/03/07 09:31:33;;;;;;;2.78;0.73;;;21.90;41.90;;;;;;4545493;31;20183;-63
2022/03/07 09:33:59;;;;;;;3.33;0.80;;;21.90;42.70;;;;;;4530509;31;20605;-63
2022/03/07 09:36:25;;;;;;;3.33;0.80;;;21.90;41.60;;;;;;4544985;31;20572;-62
2022/03/07 09:38:51;;;;;;;3.50;0.70;;;22.00;41.70;;;;;;4545387;31;20131;-63
2022/03/07 09:41:17;;;;;;;2.00;0.65;;;22.00;41.80;;;;;;4544464;31;20177;-63
2022/03/07 09:43:44;;;;;;;3.58;0.90;;;22.00;42.00;;;;;;4545313;31;20123;-63
2022/03/07 09:46:12;;;;;;;1.83;0.85;;;22.00;42.10;;;;;;4544044;31;20131;-62
2022/03/07 09:48:38;;;;;;;1.13;0.60;;;22.00;42.20;;;;;;4544687;31;20135;-63
2022/03/07 09:51:04;;;;;;;2.15;0.60;;;22.10;42.30;;;;;;4543816;31;20152;-62
2022/03/07 09:53:30;;;;;;;6.25;0.70;;;22.10;42.20;;;;;;4544524;31;20131;-62
2022/03/07 09:55:55;;;;;;;0.93;0.57;;;22.20;42.20;;;;;;4544673;31;20239;-62
2022/03/07 09:58:21;;;;;;;1.00;0.50;;;22.20;42.10;;;;;;4543475;31;20150;-62
2022/03/07 10:00:48;;;;;;;3.13;0.75;;;22.20;42.20;;;;;;4545098;31;20127;-62
2022/03/07 10:03:16;;;;;;;2.05;0.70;;;22.20;42.30;;;;;;4544316;31;20143;-62
2022/03/07 10:05:46;;;;;;;2.70;0.60;;;22.10;42.40;;;;;;4545268;31;20626;-63
2022/03/07 10:08:27;;;;;;;1.63;0.50;;;22.00;42.70;;;;;;4544673;31;20216;-63
2022/03/07 10:10:54;;;;;;;3.90;0.65;;;21.90;42.90;;;;;;4544694;31;20138;-63
2022/03/07 10:13:22;;;;;;;0.68;0.50;;;21.80;43.20;;;;;;4545422;31;20139;-63
2022/03/07 10:15:59;;;;;;;1.80;0.47;;;21.70;43.50;;;;;;4544831;31;20127;-64
2022/03/07 10:18:27;;;;;;;3.38;0.52;;;21.60;43.70;;;;;;4548347;31;20131;-62
2022/03/07 10:20:59;;;;;;;2.47;0.80;;;21.60;43.90;;;;;;4547379;31;20143;-61
2022/03/07 10:23:27;;;;;;;3.85;0.75;;;21.50;44.10;;;;;;4547818;31;20707;-62
2022/03/07 10:26:07;;;;;;;1.38;0.77;;;21.40;44.30;;;;;;4548034;31;20175;-62
2022/03/07 10:28:35;;;;;;;5.70;0.88;;;21.40;44.50;;;;;;4547231;31;20143;-63
2022/03/07 10:31:15;;;;;;;2.92;0.60;;;21.30;44.60;;;;;;4548182;31;20128;-63
2022/03/07 10:33:41;;;;;;;6.25;0.80;;;21.30;44.80;;;;;;4547383;31;20138;-63
2022/03/07 10:36:07;;;;;;;4.72;0.68;;;21.20;44.80;;;;;;4547510;31;20265;-63
2022/03/07 10:38:33;;;;;;;1.75;0.80;;;21.20;45.00;;;;;;4547752;31;20120;-62
2022/03/07 10:40:59;;;;;;;8.38;1.02;;;21.20;45.10;;;;;;4547097;31;20135;-62
2022/03/07 10:43:25;;;;;;;5.38;0.60;;;21.10;45.00;;;;;;4547795;31;20143;-62
2022/03/07 10:46:00;;;;;;;2.22;0.60;;;21.10;44.90;;;;;;4546755;31;20128;-62
2022/03/07 10:48:40;;;;;;;3.85;0.68;;;21.10;44.70;;;;;;4547777;31;20161;-62
2022/03/07 10:51:12;;;;;;;4.05;0.70;;;21.10;44.60;;;;;;4547171;31;20119;-62
2022/03/07 10:53:41;;;;;;;3.75;0.65;;;21.10;44.50;;;;;;4547342;31;20162;-62
2022/03/07 10:56:10;;;;;;;3.72;0.80;;;21.10;44.50;;;;;;4547841;31;20146;-62
2022/03/07 10:58:45;;;;;;;4.32;0.93;;;21.10;44.50;;;;;;4546549;31;20127;-62
2022/03/07 11:01:11;;;;;;;1.73;0.60;;;21.10;44.60;;;;;;4547545;31;20204;-62
2022/03/07 11:03:38;;;;;;;2.90;0.70;;;21.10;44.70;;;;;;4546474;31;20290;-63
2022/03/07 11:06:04;;;;;;;8.38;1.33;;;21.00;44.80;;;;;;4546523;31;20261;-63
2022/03/07 11:08:30;;;;;;;6.95;1.00;;;21.00;45.00;;;;;;4544414;31;20143;-63
2022/03/07 11:10:59;;;;;;;5.68;0.65;;;20.90;45.20;;;;;;4545988;31;20142;-61
2022/03/07 11:13:29;;;;;;;4.05;0.95;;;20.80;45.40;;;;;;4547545;31;20158;-62
2022/03/07 11:16:00;;;;;;;4.22;0.70;;;20.80;45.70;;;;;;4546160;31;20112;-62
2022/03/07 11:18:27;;;;;;;5.00;0.70;;;20.70;45.90;;;;;;4547289;31;20142;-62
2022/03/07 11:20:55;;;;;;;3.80;0.80;;;20.60;46.00;;;;;;4546472;31;20640;-62
2022/03/07 11:23:24;;;;;;;1.60;0.50;;;20.50;47.10;;;;;;4546888;31;20142;-63
2022/03/07 11:25:52;;;;;;;4.70;0.60;;;20.50;46.20;;;;;;4547073;31;20123;-62
2022/03/07 11:28:21;;;;;;;2.13;0.85;;;20.50;46.40;;;;;;4545205;31;20258;-62
2022/03/07 11:30:47;;;;;;;4.32;0.70;;;20.60;46.40;;;;;;4547393;31;20189;-63
2022/03/07 11:33:17;;;;;;;3.20;0.70;;;20.60;46.40;;;;;;4546178;31;20498;-62
2022/03/07 11:35:48;;;;;;;5.50;0.90;;;20.60;46.40;;;;;;4547179;31;20139;-63
2022/03/07 11:38:17;;;;;;;7.60;0.85;;;20.70;46.40;;;;;;4546532;31;20127;-62
2022/03/07 11:41:11;;;;;;;3.78;0.70;;;20.80;46.50;;;;;;4546492;31;20265;-63
2022/03/07 11:43:53;;;;;;;1.73;0.70;;;20.80;46.40;;;;;;4539229;31;20170;-62
2022/03/07 11:46:41;;;;;;;4.72;0.93;;;20.90;46.50;;;;;;4545838;31;20132;-62
2022/03/07 11:49:11;;;;;;;4.10;0.75;;;21.00;46.50;;;;;;4546480;31;20151;-62
2022/03/07 11:51:39;;;;;;;4.75;0.82;;;21.00;46.40;;;;;;4546218;31;20148;-62
2022/03/07 11:54:21;;;;;;;6.97;0.60;;;21.10;46.60;;;;;;4545244;31;20269;-61
2022/03/07 11:56:46;;;;;;;5.05;0.90;;;21.10;46.70;;;;;;4546186;31;20124;-61
2022/03/07 11:59:12;;;;;;;3.65;0.73;;;21.10;46.80;;;;;;4545275;31;20535;-61
2022/03/07 12:01:38;;;;;;;5.00;0.80;;;21.10;46.90;;;;;;4545656;31;20144;-61
2022/03/07 12:04:15;;;;;;;5.15;0.60;;;21.10;47.10;;;;;;4545846;31;20123;-61
2022/03/07 12:06:52;;;;;;;3.30;0.77;;;21.00;47.10;;;;;;4544719;31;20180;-62
2022/03/07 12:09:33;;;;;;;3.38;0.80;;;21.00;47.40;;;;;;4545089;31;20161;-61
2022/03/07 12:12:10;;;;;;;4.65;0.93;;;20.90;47.60;;;;;;4544210;31;20285;-61
2022/03/07 12:14:38;;;;;;;5.88;0.88;;;20.90;47.80;;;;;;4544705;31;20129;-62
2022/03/07 12:17:24;;;;;;;3.92;0.90;;;20.80;48.00;;;;;;4544667;31;20142;-62
2022/03/07 12:19:58;;;;;;;3.63;0.70;;;20.80;48.10;;;;;;4543464;31;20178;-62
2022/03/07 12:22:26;;;;;;;5.82;0.88;;;20.80;48.30;;;;;;4544526;31;20283;-61
2022/03/07 12:24:55;;;;;;;5.03;0.80;;;20.70;48.30;;;;;;4543884;31;20261;-61
2022/03/07 12:27:23;;;;;;;3.45;0.70;;;20.70;48.40;;;;;;4544904;31;20126;-61
2022/03/07 12:29:51;;;;;;;5.68;0.75;;;20.70;48.50;;;;;;4544544;31;20132;-61
2022/03/07 12:32:18;;;;;;;4.63;0.70;;;20.60;48.50;;;;;;4544177;31;20127;-61
2022/03/07 12:34:45;;;;;;;4.60;1.00;;;20.60;48.60;;;;;;4545116;31;20181;-61
2022/03/07 12:37:18;;;;;;;5.53;1.02;;;20.60;48.60;;;;;;4528708;31;20167;-61
2022/03/07 12:39:55;;;;;;;2.17;0.80;;;20.60;48.60;;;;;;4543836;31;20274;-61
2022/03/07 12:42:29;;;;;;;6.45;0.90;;;20.60;48.50;;;;;;4544727;31;20138;-61
2022/03/07 12:44:59;;;;;;;2.67;0.95;;;20.60;48.50;;;;;;4545584;31;20187;-62
2022/03/07 12:47:33;;;;;;;3.33;0.70;;;20.60;48.40;;;;;;4531558;31;20160;-62
2022/03/07 12:50:00;;;;;;;8.38;1.30;;;20.60;48.30;;;;;;4544341;31;20149;-63